Time;durP1;ratioP1;P1;durP2;ratioP2;P2;SDS_P1;SDS_P2;PMS_P1;PMS_P2;Temp;Humidity;BMP_temperature;BMP_pressure;BME280_temperature;BME280_humidity;BME280_pressure;Samples;Min_cycle;Max_cycle;Signal;HPM_P1;HPM_P2
2021/06/07 00:02:19;;;;;;;0.40;0.40;;;20.30;71.70;;;;;;4429813;32;20090;-61
2021/06/07 00:04:44;;;;;;;0.20;0.20;;;20.40;70.80;;;;;;4416626;32;20085;-61
2021/06/07 00:07:12;;;;;;;0.30;0.30;;;20.30;71.30;;;;;;4429907;32;20061;-60
2021/06/07 00:09:38;;;;;;;0.50;0.50;;;20.30;71.00;;;;;;4403264;32;20594;-60
2021/06/07 00:12:11;;;;;;;0.28;0.28;;;20.20;72.30;;;;;;4414588;32;20116;-61
2021/06/07 00:14:37;;;;;;;0.43;0.43;;;20.20;72.20;;;;;;4399530;32;20155;-61
2021/06/07 00:17:04;;;;;;;0.47;0.47;;;20.10;72.30;;;;;;4401219;32;20205;-61
2021/06/07 00:19:32;;;;;;;0.50;0.50;;;19.90;73.40;;;;;;4400303;32;20066;-60
2021/06/07 00:21:59;;;;;;;0.30;0.30;;;19.80;74.80;;;;;;4415417;32;20504;-60
2021/06/07 00:24:25;;;;;;;0.20;0.20;;;19.80;75.70;;;;;;4414547;32;20065;-61
2021/06/07 00:26:50;;;;;;;0.30;0.30;;;19.80;75.70;;;;;;4400015;32;20053;-60
2021/06/07 00:29:16;;;;;;;0.43;0.43;;;19.70;76.20;;;;;;4412977;32;20074;-61
2021/06/07 00:31:43;;;;;;;0.70;0.62;;;19.70;76.90;;;;;;4414686;32;20498;-60
2021/06/07 00:34:10;;;;;;;0.30;0.30;;;19.60;77.20;;;;;;4388290;32;20116;-60
2021/06/07 00:36:37;;;;;;;0.32;0.32;;;19.60;77.50;;;;;;4401363;32;20061;-61
2021/06/07 00:39:05;;;;;;;0.37;0.37;;;19.60;78.30;;;;;;4399684;32;20129;-60
2021/06/07 00:41:31;;;;;;;0.40;0.40;;;19.60;78.00;;;;;;4413049;32;20062;-60
2021/06/07 00:43:59;;;;;;;0.28;0.28;;;19.60;78.60;;;;;;4399571;32;20074;-60
2021/06/07 00:46:25;;;;;;;0.52;0.43;;;19.50;78.70;;;;;;4400458;32;20141;-60
2021/06/07 00:48:52;;;;;;;0.32;0.30;;;19.40;79.70;;;;;;4414862;32;20062;-60
2021/06/07 00:51:18;;;;;;;0.68;0.68;;;19.30;80.20;;;;;;4413421;32;20077;-61
2021/06/07 00:53:44;;;;;;;0.20;0.20;;;19.10;81.70;;;;;;4399883;32;20069;-63
2021/06/07 00:56:12;;;;;;;0.30;0.30;;;19.00;82.60;;;;;;4413049;32;20384;-61
2021/06/07 00:58:44;;;;;;;0.30;0.30;;;18.80;82.40;;;;;;4414608;32;20058;-59
2021/06/07 01:01:12;;;;;;;0.22;0.22;;;18.80;83.10;;;;;;4414759;32;20141;-60
2021/06/07 01:03:39;;;;;;;0.77;0.50;;;18.80;83.30;;;;;;4414285;32;20073;-60
2021/06/07 01:06:05;;;;;;;0.20;0.20;;;18.80;82.80;;;;;;4413811;32;20061;-60
2021/06/07 01:08:32;;;;;;;5.00;1.15;;;18.70;83.20;;;;;;4388266;32;20074;-60
2021/06/07 01:10:57;;;;;;;0.65;0.60;;;18.60;83.60;;;;;;4400324;32;20113;-61
2021/06/07 01:13:24;;;;;;;0.73;0.50;;;18.70;84.60;;;;;;4421987;32;20072;-60
2021/06/07 01:15:51;;;;;;;0.30;0.30;;;18.60;83.60;;;;;;4429502;32;20171;-61
2021/06/07 01:18:20;;;;;;;0.40;0.40;;;18.60;84.90;;;;;;4416392;32;20077;-60
2021/06/07 01:20:47;;;;;;;0.22;0.22;;;18.60;83.80;;;;;;4429930;32;20061;-61
2021/06/07 01:23:12;;;;;;;0.20;0.20;;;18.60;84.20;;;;;;4430013;32;20062;-60
2021/06/07 01:25:40;;;;;;;0.30;0.30;;;18.60;84.50;;;;;;4402989;32;20408;-60
2021/06/07 01:28:07;;;;;;;0.52;0.52;;;18.40;84.90;;;;;;4429465;32;20069;-60
2021/06/07 01:30:35;;;;;;;0.52;0.52;;;18.40;85.20;;;;;;4428143;32;20143;-60
2021/06/07 01:33:03;;;;;;;0.40;0.40;;;18.40;85.50;;;;;;4428332;32;20091;-61
2021/06/07 01:35:28;;;;;;;0.30;0.30;;;18.20;86.40;;;;;;4429843;32;20061;-60
2021/06/07 01:37:55;;;;;;;0.40;0.40;;;18.10;85.60;;;;;;4415541;32;20078;-61
2021/06/07 01:40:24;;;;;;;0.40;0.40;;;18.20;86.60;;;;;;4401576;32;20082;-61
2021/06/07 01:42:50;;;;;;;0.20;0.20;;;18.10;85.90;;;;;;4402745;32;20073;-61
2021/06/07 01:45:20;;;;;;;0.20;0.20;;;18.20;85.50;;;;;;4427786;32;20548;-61
2021/06/07 01:47:46;;;;;;;0.57;0.57;;;18.20;85.10;;;;;;4415780;32;20413;-61
2021/06/07 01:50:13;;;;;;;0.20;0.20;;;18.20;84.70;;;;;;4428534;32;20123;-61
2021/06/07 01:52:47;;;;;;;0.43;0.43;;;18.20;83.90;;;;;;4415428;32;20073;-58
2021/06/07 01:55:15;;;;;;;0.28;0.28;;;18.30;84.30;;;;;;4416068;32;20505;-61
2021/06/07 01:57:42;;;;;;;0.50;0.50;;;18.20;84.60;;;;;;4428663;32;20065;-61
2021/06/07 02:00:16;;;;;;;0.28;0.28;;;18.00;85.50;;;;;;4428152;32;20066;-61
2021/06/07 02:02:44;;;;;;;2.28;0.70;;;17.90;85.90;;;;;;4427990;32;20065;-62
2021/06/07 02:05:12;;;;;;;0.30;0.30;;;17.80;86.80;;;;;;4415915;32;20065;-60
2021/06/07 02:07:44;;;;;;;0.85;0.37;;;17.80;87.10;;;;;;4430375;32;20058;-60
2021/06/07 02:10:11;;;;;;;0.47;0.30;;;17.80;86.20;;;;;;4417971;32;20070;-61
2021/06/07 02:12:36;;;;;;;0.30;0.30;;;17.90;86.20;;;;;;4427634;32;20070;-60
2021/06/07 02:15:02;;;;;;;0.35;0.35;;;17.90;86.30;;;;;;4414388;32;20061;-60
2021/06/07 02:17:28;;;;;;;0.20;0.20;;;17.90;86.50;;;;;;4416390;32;20494;-58
2021/06/07 02:19:53;;;;;;;0.25;0.25;;;17.80;86.70;;;;;;4416400;32;20069;-61
2021/06/07 02:22:19;;;;;;;1.10;0.77;;;17.70;87.20;;;;;;4416016;32;20078;-61
2021/06/07 02:24:44;;;;;;;1.60;0.88;;;17.70;87.00;;;;;;4415923;32;20078;-61
2021/06/07 02:27:10;;;;;;;0.35;0.35;;;17.80;87.40;;;;;;4414935;32;20066;-61
2021/06/07 02:29:35;;;;;;;0.68;0.50;;;17.70;87.40;;;;;;4414989;32;20113;-60
2021/06/07 02:32:01;;;;;;;0.25;0.25;;;17.70;87.20;;;;;;4414913;32;20124;-61
2021/06/07 02:34:26;;;;;;;0.30;0.30;;;17.70;87.80;;;;;;4415367;32;20074;-61
2021/06/07 02:36:52;;;;;;;0.20;0.20;;;17.60;88.40;;;;;;4416740;32;20062;-60
2021/06/07 02:39:18;;;;;;;0.20;0.20;;;17.60;88.60;;;;;;4416464;32;20432;-61
2021/06/07 02:41:44;;;;;;;0.30;0.30;;;17.50;88.80;;;;;;4415936;32;20069;-62
2021/06/07 02:44:10;;;;;;;0.47;0.47;;;17.40;88.50;;;;;;4401932;32;20126;-61
2021/06/07 02:46:36;;;;;;;0.52;0.52;;;17.40;89.10;;;;;;4414598;32;20070;-61
2021/06/07 02:49:01;;;;;;;1.08;0.45;;;17.30;89.60;;;;;;4402268;32;20061;-61
2021/06/07 02:51:27;;;;;;;0.32;0.32;;;17.30;90.10;;;;;;4416353;32;20118;-61
2021/06/07 02:53:53;;;;;;;0.32;0.32;;;17.20;90.10;;;;;;4415846;32;20077;-61
2021/06/07 02:56:19;;;;;;;1.23;0.60;;;17.20;90.10;;;;;;4415711;32;20062;-61
2021/06/07 02:58:44;;;;;;;0.30;0.30;;;17.20;90.30;;;;;;4415143;32;20078;-61
2021/06/07 03:01:11;;;;;;;0.30;0.30;;;17.30;90.30;;;;;;4415823;32;20495;-60
2021/06/07 03:03:37;;;;;;;2.62;0.57;;;17.30;90.50;;;;;;4387977;32;20061;-57
2021/06/07 03:06:04;;;;;;;0.43;0.43;;;17.30;90.60;;;;;;4401872;32;20077;-59
2021/06/07 03:08:32;;;;;;;0.30;0.30;;;17.10;90.70;;;;;;4414655;32;20515;-60
2021/06/07 03:11:01;;;;;;;0.45;0.45;;;17.20;90.90;;;;;;4400970;32;20113;-61
2021/06/07 03:13:27;;;;;;;3.37;1.08;;;17.30;90.80;;;;;;4397963;32;20070;-62
2021/06/07 03:15:54;;;;;;;1.55;1.05;;;17.20;90.90;;;;;;4403889;32;20380;-59
2021/06/07 03:18:21;;;;;;;0.35;0.35;;;17.20;91.00;;;;;;4415874;32;20542;-61
2021/06/07 03:20:47;;;;;;;0.22;0.22;;;17.20;91.30;;;;;;4415939;32;20088;-60
2021/06/07 03:23:16;;;;;;;0.22;0.22;;;17.20;91.60;;;;;;4416439;32;20061;-60
2021/06/07 03:25:44;;;;;;;0.20;0.20;;;17.20;92.10;;;;;;4404914;32;20062;-60
2021/06/07 03:28:10;;;;;;;0.30;0.30;;;17.10;91.70;;;;;;4417066;32;20077;-60
2021/06/07 03:30:36;;;;;;;0.30;0.30;;;17.10;91.90;;;;;;4415661;32;20057;-60
2021/06/07 03:33:03;;;;;;;0.35;0.35;;;17.00;92.00;;;;;;4429466;32;20069;-61
2021/06/07 03:35:29;;;;;;;15.15;2.25;;;17.00;92.30;;;;;;4430080;32;20111;-60
2021/06/07 03:37:54;;;;;;;0.95;0.70;;;16.90;92.30;;;;;;4430193;32;20488;-61
2021/06/07 03:40:25;;;;;;;0.28;0.28;;;16.90;92.10;;;;;;4429629;32;20149;-60
2021/06/07 03:42:51;;;;;;;0.30;0.30;;;17.00;92.40;;;;;;4429667;32;20057;-60
2021/06/07 03:45:17;;;;;;;0.93;0.85;;;17.10;92.20;;;;;;4415352;32;20522;-61
2021/06/07 03:47:44;;;;;;;0.35;0.35;;;17.10;92.10;;;;;;4416866;32;20069;-59
2021/06/07 03:50:11;;;;;;;0.70;0.62;;;17.20;92.10;;;;;;4430372;32;20543;-61
2021/06/07 03:52:37;;;;;;;1.55;0.95;;;17.30;91.80;;;;;;4417526;32;20074;-60
2021/06/07 03:55:05;;;;;;;0.22;0.22;;;17.30;92.00;;;;;;4430228;32;20053;-60
2021/06/07 03:57:31;;;;;;;0.80;0.50;;;17.20;92.00;;;;;;4430717;32;20073;-60
2021/06/07 03:59:56;;;;;;;0.32;0.30;;;17.20;92.20;;;;;;4429342;32;20058;-60
2021/06/07 04:02:22;;;;;;;0.30;0.30;;;17.10;92.40;;;;;;4429683;32;20175;-60
2021/06/07 04:04:48;;;;;;;0.52;0.52;;;17.10;91.90;;;;;;4431219;32;20076;-61
2021/06/07 04:07:13;;;;;;;0.60;0.60;;;17.10;92.10;;;;;;4430183;32;20586;-61
2021/06/07 04:09:41;;;;;;;0.30;0.30;;;17.10;92.00;;;;;;4428972;32;20058;-61
2021/06/07 04:12:07;;;;;;;0.30;0.30;;;17.10;92.00;;;;;;4429654;32;20069;-60
2021/06/07 04:14:32;;;;;;;0.28;0.28;;;17.00;91.80;;;;;;4413797;32;20510;-61
2021/06/07 04:16:58;;;;;;;0.30;0.30;;;17.00;92.20;;;;;;4413743;32;20077;-58
2021/06/07 04:19:24;;;;;;;0.20;0.20;;;17.00;91.80;;;;;;4414738;32;20062;-61
2021/06/07 04:21:49;;;;;;;0.50;0.50;;;17.00;92.50;;;;;;4412443;32;20472;-60
2021/06/07 04:24:15;;;;;;;0.35;0.35;;;17.20;92.10;;;;;;4425766;32;20053;-61
2021/06/07 04:26:40;;;;;;;0.32;0.32;;;17.30;92.60;;;;;;4427014;32;20474;-56
2021/06/07 04:29:07;;;;;;;1.87;0.37;;;17.40;93.00;;;;;;4413927;32;20086;-60
2021/06/07 04:31:33;;;;;;;0.40;0.40;;;17.50;93.00;;;;;;4412631;32;20201;-59
2021/06/07 04:33:58;;;;;;;0.20;0.20;;;17.50;93.50;;;;;;4398544;32;20156;-60
2021/06/07 04:36:24;;;;;;;0.70;0.70;;;17.40;93.70;;;;;;4413663;32;20069;-61
2021/06/07 04:38:49;;;;;;;0.60;0.37;;;17.30;94.10;;;;;;4413299;32;20058;-61
2021/06/07 04:41:15;;;;;;;0.40;0.40;;;17.40;94.10;;;;;;4425769;32;20112;-57
2021/06/07 04:43:40;;;;;;;0.60;0.43;;;17.40;93.50;;;;;;4428355;32;20081;-60
2021/06/07 04:46:06;;;;;;;0.95;0.70;;;17.50;93.50;;;;;;4428703;32;20401;-59
2021/06/07 04:48:32;;;;;;;1.20;1.05;;;17.40;93.10;;;;;;4428036;32;20124;-60
2021/06/07 04:50:57;;;;;;;0.50;0.30;;;17.40;92.50;;;;;;4428004;32;20542;-60
2021/06/07 04:53:22;;;;;;;0.40;0.40;;;17.40;92.40;;;;;;4418145;32;20081;-61
2021/06/07 04:55:51;;;;;;;1.90;0.95;;;17.50;92.20;;;;;;4414050;32;20538;-61
2021/06/07 04:58:20;;;;;;;0.30;0.30;;;17.60;92.60;;;;;;4418785;32;20502;-61
2021/06/07 05:00:48;;;;;;;0.50;0.50;;;17.70;92.00;;;;;;4420741;32;20408;-60
2021/06/07 05:03:14;;;;;;;0.40;0.40;;;17.70;91.80;;;;;;4392151;32;20057;-61
2021/06/07 05:05:40;;;;;;;0.32;0.32;;;17.70;91.30;;;;;;4412757;32;20078;-61
2021/06/07 05:08:06;;;;;;;0.40;0.40;;;17.90;91.40;;;;;;4425173;32;20061;-60
2021/06/07 05:10:32;;;;;;;0.20;0.20;;;17.90;91.20;;;;;;4405478;32;20085;-61
2021/06/07 05:12:57;;;;;;;0.30;0.30;;;17.90;91.50;;;;;;4417480;32;20077;-61
2021/06/07 05:15:23;;;;;;;0.93;0.40;;;17.90;91.10;;;;;;4418222;32;20120;-60
2021/06/07 05:17:49;;;;;;;1.77;0.60;;;18.00;90.90;;;;;;4408509;32;20077;-60
2021/06/07 05:20:20;;;;;;;1.33;0.70;;;18.10;91.00;;;;;;4406657;32;20454;-59
2021/06/07 05:22:45;;;;;;;0.40;0.40;;;18.00;90.70;;;;;;4407449;32;20069;-60
2021/06/07 05:25:11;;;;;;;0.30;0.30;;;18.10;90.80;;;;;;4417631;32;20069;-61
2021/06/07 05:27:37;;;;;;;0.60;0.60;;;18.20;90.30;;;;;;4396676;32;20562;-60
2021/06/07 05:30:04;;;;;;;0.25;0.25;;;18.30;90.60;;;;;;4401524;32;20089;-61
2021/06/07 05:32:30;;;;;;;1.67;0.80;;;18.20;90.10;;;;;;4386727;32;20081;-60
2021/06/07 05:34:55;;;;;;;0.30;0.30;;;18.20;89.20;;;;;;4409456;32;20115;-61
2021/06/07 05:37:21;;;;;;;1.95;0.52;;;18.20;90.40;;;;;;4413010;32;20116;-59
2021/06/07 05:39:49;;;;;;;0.22;0.22;;;18.20;89.30;;;;;;4418684;32;20097;-61
2021/06/07 05:42:15;;;;;;;0.20;0.20;;;18.20;88.70;;;;;;4404430;32;20077;-62
2021/06/07 05:44:40;;;;;;;0.30;0.30;;;18.30;89.60;;;;;;4420509;32;20069;-59
2021/06/07 05:47:06;;;;;;;0.40;0.40;;;18.40;89.90;;;;;;4421724;32;20057;-57
2021/06/07 05:49:31;;;;;;;5.70;1.40;;;18.60;88.40;;;;;;4427673;32;20053;-59
2021/06/07 05:51:57;;;;;;;0.40;0.40;;;18.60;88.70;;;;;;4422416;32;20093;-58
2021/06/07 05:54:23;;;;;;;0.30;0.30;;;18.60;88.80;;;;;;4419979;32;20113;-60
2021/06/07 05:56:53;;;;;;;0.65;0.65;;;18.60;89.30;;;;;;4403254;32;20130;-61
2021/06/07 05:59:19;;;;;;;0.40;0.40;;;18.70;87.80;;;;;;4418382;32;20058;-60
2021/06/07 06:01:45;;;;;;;0.30;0.30;;;18.80;88.00;;;;;;4420957;32;20082;-61
2021/06/07 06:04:11;;;;;;;0.40;0.32;;;18.90;87.60;;;;;;4427319;32;20416;-59
2021/06/07 06:06:37;;;;;;;0.20;0.20;;;18.90;87.80;;;;;;4420114;32;20098;-60
2021/06/07 06:09:03;;;;;;;2.25;0.55;;;19.00;86.50;;;;;;4422615;32;20062;-61
2021/06/07 06:11:29;;;;;;;0.20;0.20;;;19.10;85.80;;;;;;4406045;32;20116;-60
2021/06/07 06:13:55;;;;;;;0.30;0.30;;;19.20;86.30;;;;;;4421026;32;20384;-60
2021/06/07 06:16:22;;;;;;;1.65;0.80;;;19.20;86.70;;;;;;4426169;32;20069;-62
2021/06/07 06:18:48;;;;;;;1.62;0.65;;;19.30;87.10;;;;;;4420420;32;20082;-61
2021/06/07 06:21:14;;;;;;;0.35;0.35;;;19.30;86.10;;;;;;4421234;32;20073;-61
2021/06/07 06:23:40;;;;;;;0.20;0.20;;;19.40;83.90;;;;;;4406314;32;20523;-62
2021/06/07 06:26:08;;;;;;;0.20;0.20;;;19.60;82.60;;;;;;4412983;32;20081;-62
2021/06/07 06:28:35;;;;;;;0.43;0.43;;;19.70;82.00;;;;;;4409683;32;20054;-59
2021/06/07 06:31:03;;;;;;;0.90;0.57;;;19.70;82.20;;;;;;4408037;32;20439;-61
2021/06/07 06:33:29;;;;;;;0.30;0.30;;;19.80;82.60;;;;;;4395581;32;20068;-61
2021/06/07 06:35:54;;;;;;;0.20;0.20;;;19.90;82.50;;;;;;4435738;32;20502;-59
2021/06/07 06:38:20;;;;;;;0.50;0.47;;;20.00;82.30;;;;;;4425882;32;20179;-61
2021/06/07 06:40:47;;;;;;;0.35;0.35;;;19.90;82.00;;;;;;4424796;32;20497;-61
2021/06/07 06:43:13;;;;;;;0.30;0.30;;;19.90;82.00;;;;;;4423079;32;20085;-61
2021/06/07 06:45:39;;;;;;;0.37;0.37;;;20.10;82.10;;;;;;4404253;32;20077;-60
2021/06/07 06:48:05;;;;;;;0.20;0.20;;;20.20;81.60;;;;;;4411809;32;20078;-61
2021/06/07 06:50:34;;;;;;;0.20;0.20;;;20.30;81.40;;;;;;4400091;32;20077;-59
2021/06/07 06:53:02;;;;;;;1.05;0.52;;;20.30;82.20;;;;;;4411294;32;20077;-60
2021/06/07 06:55:28;;;;;;;0.32;0.30;;;20.40;82.10;;;;;;4424600;32;20084;-61
2021/06/07 06:57:54;;;;;;;0.37;0.37;;;20.30;81.40;;;;;;4429824;32;20066;-60
2021/06/07 07:00:20;;;;;;;0.30;0.30;;;20.40;81.90;;;;;;4417614;32;20135;-61
2021/06/07 07:02:46;;;;;;;2.55;0.90;;;20.50;82.50;;;;;;4398006;32;20523;-62
2021/06/07 07:05:11;;;;;;;12.65;1.35;;;20.50;82.70;;;;;;4399223;32;20102;-61
2021/06/07 07:07:37;;;;;;;0.25;0.25;;;20.50;82.10;;;;;;4397160;32;20126;-62
2021/06/07 07:10:05;;;;;;;0.20;0.20;;;20.60;82.60;;;;;;4416983;32;20062;-61
2021/06/07 07:12:30;;;;;;;0.10;0.10;;;20.80;83.10;;;;;;4397457;32;20617;-61
2021/06/07 07:14:56;;;;;;;0.30;0.30;;;20.80;81.10;;;;;;4421704;32;20196;-61
2021/06/07 07:17:22;;;;;;;0.30;0.30;;;20.90;81.30;;;;;;4421987;32;20058;-61
2021/06/07 07:19:49;;;;;;;1.48;1.00;;;20.90;80.90;;;;;;4425001;32;20073;-61
2021/06/07 07:22:15;;;;;;;0.20;0.20;;;21.00;81.20;;;;;;4389730;32;20086;-62
2021/06/07 07:24:44;;;;;;;0.10;0.10;;;21.00;80.80;;;;;;4395036;32;20093;-61
2021/06/07 07:27:12;;;;;;;0.20;0.20;;;21.10;81.20;;;;;;4395853;32;20452;-61
2021/06/07 07:29:38;;;;;;;0.60;0.35;;;21.20;81.00;;;;;;4408950;32;20511;-60
2021/06/07 07:32:06;;;;;;;0.28;0.28;;;21.30;81.40;;;;;;4414161;32;20057;-60
2021/06/07 07:34:32;;;;;;;0.70;0.70;;;21.50;79.90;;;;;;4417533;32;20138;-60
2021/06/07 07:36:59;;;;;;;0.20;0.20;;;21.60;79.90;;;;;;4397888;32;20426;-59
2021/06/07 07:39:25;;;;;;;0.28;0.28;;;21.70;79.80;;;;;;4392686;32;20069;-61
2021/06/07 07:41:51;;;;;;;1.55;0.50;;;21.80;79.70;;;;;;4398228;32;20152;-61
2021/06/07 07:44:17;;;;;;;0.70;0.47;;;21.90;79.50;;;;;;4398055;32;20378;-61
2021/06/07 07:46:42;;;;;;;0.37;0.37;;;21.90;79.00;;;;;;4409508;32;20197;-60
2021/06/07 07:49:08;;;;;;;0.52;0.32;;;21.90;78.60;;;;;;4412368;32;20070;-58
2021/06/07 07:51:33;;;;;;;0.20;0.20;;;22.00;79.40;;;;;;4408856;32;20065;-55
2021/06/07 07:53:59;;;;;;;1.10;0.45;;;22.00;77.20;;;;;;4406993;32;20068;-58
2021/06/07 07:56:25;;;;;;;0.40;0.40;;;22.10;77.70;;;;;;4411254;32;20487;-59
2021/06/07 07:58:50;;;;;;;0.68;0.68;;;22.30;77.70;;;;;;4417182;32;20096;-59
2021/06/07 08:01:16;;;;;;;0.40;0.40;;;22.40;76.90;;;;;;4404256;32;20139;-59
2021/06/07 08:03:42;;;;;;;0.20;0.20;;;22.70;75.70;;;;;;4412897;32;20484;-58
2021/06/07 08:06:08;;;;;;;1.45;0.75;;;22.70;75.50;;;;;;4398143;32;20066;-59
2021/06/07 08:08:34;;;;;;;0.52;0.52;;;22.90;75.60;;;;;;4416304;32;20065;-59
2021/06/07 08:11:00;;;;;;;0.30;0.30;;;23.00;74.90;;;;;;4415524;32;20085;-59
2021/06/07 08:13:26;;;;;;;0.37;0.25;;;23.10;75.10;;;;;;4394788;32;20155;-60
2021/06/07 08:15:52;;;;;;;0.30;0.30;;;23.10;74.80;;;;;;4413462;32;20062;-59
2021/06/07 08:18:17;;;;;;;0.30;0.30;;;23.00;74.00;;;;;;4410258;32;20421;-60
2021/06/07 08:20:43;;;;;;;0.55;0.50;;;22.90;74.40;;;;;;4421808;32;20387;-60
2021/06/07 08:23:09;;;;;;;0.40;0.40;;;23.00;74.20;;;;;;4425533;32;20086;-59
2021/06/07 08:25:35;;;;;;;0.30;0.30;;;23.00;73.80;;;;;;4413690;32;20066;-58
2021/06/07 08:28:01;;;;;;;0.82;0.70;;;23.10;73.00;;;;;;4417455;32;20241;-58
2021/06/07 08:30:29;;;;;;;1.65;0.85;;;23.30;72.90;;;;;;4414881;32;20174;-59
2021/06/07 08:32:54;;;;;;;0.60;0.55;;;23.40;72.00;;;;;;4396800;32;20243;-60
2021/06/07 08:35:20;;;;;;;4.20;0.50;;;23.40;72.80;;;;;;4412175;32;20078;-59
2021/06/07 08:37:46;;;;;;;0.22;0.22;;;23.50;72.20;;;;;;4418614;32;20065;-60
2021/06/07 08:40:13;;;;;;;0.32;0.32;;;23.50;71.70;;;;;;4395979;32;20433;-60
2021/06/07 08:42:42;;;;;;;0.45;0.35;;;23.50;71.70;;;;;;4406859;32;20068;-58
2021/06/07 08:45:11;;;;;;;5.57;0.40;;;23.60;72.90;;;;;;4401256;32;20089;-59
2021/06/07 08:47:40;;;;;;;0.30;0.30;;;23.80;72.40;;;;;;4401771;32;20220;-60
2021/06/07 08:50:06;;;;;;;0.13;0.13;;;24.00;71.10;;;;;;4398694;32;20077;-60
2021/06/07 08:52:32;;;;;;;0.20;0.20;;;24.10;70.50;;;;;;4403619;32;20545;-59
2021/06/07 08:54:58;;;;;;;0.70;0.55;;;24.10;71.20;;;;;;4422195;32;20515;-59
2021/06/07 08:57:24;;;;;;;0.40;0.40;;;24.10;71.30;;;;;;4428240;32;20061;-60
2021/06/07 08:59:50;;;;;;;0.10;0.10;;;24.20;70.60;;;;;;4414253;32;20065;-60
2021/06/07 09:02:16;;;;;;;0.30;0.30;;;24.30;68.70;;;;;;4418460;32;20069;-59
2021/06/07 09:04:47;;;;;;;1.33;0.57;;;24.30;68.60;;;;;;4418624;32;20077;-58
2021/06/07 09:07:12;;;;;;;0.20;0.20;;;24.30;68.80;;;;;;4402018;32;20647;-59
2021/06/07 09:09:39;;;;;;;0.22;0.22;;;24.30;68.30;;;;;;4397216;32;20144;-60
2021/06/07 09:12:08;;;;;;;1.45;0.55;;;24.50;68.80;;;;;;4406554;32;20085;-59
2021/06/07 09:14:40;;;;;;;0.30;0.30;;;24.60;68.50;;;;;;4411269;32;20061;-59
2021/06/07 09:17:22;;;;;;;0.37;0.37;;;24.70;68.80;;;;;;4398042;32;20077;-60
2021/06/07 09:20:09;;;;;;;0.32;0.32;;;24.80;68.90;;;;;;4401194;32;20088;-59
2021/06/07 09:22:35;;;;;;;0.25;0.25;;;24.90;66.80;;;;;;4408136;32;20135;-59
2021/06/07 09:25:05;;;;;;;0.30;0.30;;;24.70;66.70;;;;;;4410396;32;20565;-59
2021/06/07 09:27:31;;;;;;;0.52;0.50;;;24.70;68.40;;;;;;4396462;32;20311;-58
2021/06/07 09:29:56;;;;;;;3.65;1.27;;;24.80;66.70;;;;;;4405466;32;20065;-58
2021/06/07 09:32:22;;;;;;;0.40;0.40;;;24.80;65.90;;;;;;4389316;32;20614;-59
2021/06/07 09:35:06;;;;;;;0.43;0.32;;;24.90;65.60;;;;;;4402876;32;20200;-59
2021/06/07 09:37:32;;;;;;;0.25;0.25;;;25.00;64.60;;;;;;4392998;32;20557;-56
2021/06/07 09:40:17;;;;;;;0.52;0.50;;;24.90;63.40;;;;;;4408809;32;75376;-59
2021/06/07 09:43:01;;;;;;;1.65;0.62;;;24.90;64.90;;;;;;4412134;32;20957;-57
2021/06/07 09:45:45;;;;;;;0.88;0.70;;;25.10;63.80;;;;;;4413325;32;20128;-60
2021/06/07 09:48:13;;;;;;;0.30;0.30;;;25.20;64.50;;;;;;4408593;32;20076;-59
2021/06/07 09:50:53;;;;;;;0.30;0.30;;;25.50;63.70;;;;;;4402124;32;20482;-59
2021/06/07 09:53:44;;;;;;;0.60;0.60;;;25.40;64.60;;;;;;4393618;32;20082;-61
2021/06/07 09:56:10;;;;;;;0.20;0.20;;;25.60;63.00;;;;;;4392486;32;20070;-60
2021/06/07 09:58:37;;;;;;;0.20;0.20;;;25.70;62.40;;;;;;4408516;32;20085;-61
2021/06/07 10:01:14;;;;;;;0.60;0.35;;;25.70;62.50;;;;;;4391348;32;20559;-61
2021/06/07 10:03:43;;;;;;;0.28;0.28;;;25.60;61.40;;;;;;4415522;32;20201;-61
2021/06/07 10:06:30;;;;;;;0.20;0.20;;;25.70;60.50;;;;;;4390483;32;20105;-61
2021/06/07 10:08:59;;;;;;;0.55;0.45;;;25.90;61.70;;;;;;4396173;32;20713;-61
2021/06/07 10:11:29;;;;;;;0.20;0.20;;;26.20;61.10;;;;;;4401911;32;20093;-62
2021/06/07 10:14:20;;;;;;;1.70;0.70;;;26.40;59.70;;;;;;4411019;32;20149;-60
2021/06/07 10:16:53;;;;;;;0.57;0.50;;;26.10;60.00;;;;;;4415259;32;20494;-58
2021/06/07 10:19:20;;;;;;;0.60;0.40;;;26.20;59.60;;;;;;4409010;32;20070;-57
2021/06/07 10:21:46;;;;;;;0.20;0.20;;;26.40;59.60;;;;;;4417683;32;20098;-61
2021/06/07 10:24:13;;;;;;;0.13;0.13;;;26.50;59.20;;;;;;4395715;32;20116;-59
2021/06/07 10:26:39;;;;;;;2.62;0.88;;;26.50;59.30;;;;;;4388461;32;20066;-57
2021/06/07 10:29:06;;;;;;;1.08;0.75;;;26.60;59.80;;;;;;4418909;32;20541;-58
2021/06/07 10:31:37;;;;;;;0.20;0.20;;;26.70;60.80;;;;;;4408448;32;20085;-59
2021/06/07 10:34:05;;;;;;;0.25;0.25;;;27.10;59.20;;;;;;4396860;32;20156;-59
2021/06/07 10:36:41;;;;;;;0.20;0.20;;;27.20;59.20;;;;;;4394836;32;20120;-60
2021/06/07 10:39:18;;;;;;;0.88;0.62;;;27.30;58.60;;;;;;4400122;32;20185;-59
2021/06/07 10:41:46;;;;;;;0.17;0.17;;;27.20;58.90;;;;;;4413113;32;20077;-60
2021/06/07 10:44:12;;;;;;;0.20;0.20;;;27.50;59.50;;;;;;4422815;32;20133;-59
2021/06/07 10:46:41;;;;;;;0.30;0.30;;;27.90;57.70;;;;;;4402133;32;20089;-59
2021/06/07 10:49:35;;;;;;;0.80;0.50;;;27.80;57.40;;;;;;4388535;32;20275;-60
2021/06/07 10:52:08;;;;;;;0.47;0.37;;;27.70;57.70;;;;;;4397957;32;20100;-60
2021/06/07 10:54:36;;;;;;;0.32;0.32;;;27.70;59.40;;;;;;4396357;32;20514;-60
2021/06/07 10:57:26;;;;;;;0.82;0.52;;;27.70;58.00;;;;;;4417495;32;20143;-59
2021/06/07 10:59:54;;;;;;;0.40;0.40;;;28.00;57.10;;;;;;4407355;32;20081;-60
2021/06/07 11:02:22;;;;;;;0.10;0.10;;;28.40;57.40;;;;;;4405815;32;20542;-60
2021/06/07 11:05:01;;;;;;;2.83;0.30;;;28.70;56.60;;;;;;4414857;32;20139;-60
2021/06/07 11:07:27;;;;;;;0.17;0.17;;;28.90;56.90;;;;;;4391915;32;20942;-59
2021/06/07 11:10:14;;;;;;;0.73;0.40;;;28.90;55.70;;;;;;4397331;32;20061;-60
2021/06/07 11:12:41;;;;;;;0.15;0.15;;;29.20;55.80;;;;;;4412229;32;20101;-60
2021/06/07 11:15:10;;;;;;;0.35;0.28;;;29.20;55.80;;;;;;4391461;32;20073;-60
2021/06/07 11:17:35;;;;;;;0.10;0.10;;;29.40;53.70;;;;;;4418871;32;20090;-60
2021/06/07 11:20:04;;;;;;;0.20;0.20;;;29.10;53.20;;;;;;4405964;32;20069;-59
2021/06/07 11:22:49;;;;;;;0.20;0.20;;;29.20;53.90;;;;;;4400686;32;20065;-59
2021/06/07 11:25:18;;;;;;;0.22;0.22;;;29.50;55.00;;;;;;4403057;32;20089;-59
2021/06/07 11:27:44;;;;;;;0.22;0.22;;;30.10;54.20;;;;;;4417365;32;20073;-60
2021/06/07 11:30:15;;;;;;;0.10;0.10;;;30.20;52.60;;;;;;4411152;32;20077;-60
2021/06/07 11:32:42;;;;;;;0.20;0.20;;;30.30;52.60;;;;;;4392641;32;20088;-61
2021/06/07 11:35:08;;;;;;;0.30;0.30;;;30.20;52.80;;;;;;4408239;32;20093;-60
2021/06/07 11:37:36;;;;;;;0.10;0.10;;;30.40;52.60;;;;;;4406488;32;20392;-60
2021/06/07 11:40:06;;;;;;;0.10;0.10;;;30.30;52.40;;;;;;4393944;32;20062;-60
2021/06/07 11:42:32;;;;;;;;;;;30.60;52.50;;;;;;4388636;32;20613;-60
2021/06/07 11:45:01;;;;;;;0.65;0.50;;;31.00;52.10;;;;;;4401538;32;20008;-60
2021/06/07 11:47:49;;;;;;;0.43;0.32;;;31.30;51.70;;;;;;4406391;32;20093;-60
2021/06/07 11:50:26;;;;;;;0.20;0.20;;;31.10;51.40;;;;;;4418997;32;20124;-59
2021/06/07 11:52:52;;;;;;;0.60;0.22;;;31.50;51.60;;;;;;4399597;32;20088;-60
2021/06/07 11:55:22;;;;;;;0.20;0.10;;;31.20;51.30;;;;;;4394397;32;20138;-60
2021/06/07 11:57:49;;;;;;;0.03;0.03;;;31.40;51.20;;;;;;4400854;32;20605;-59
2021/06/07 12:00:17;;;;;;;0.10;0.10;;;31.50;50.40;;;;;;4410849;32;20070;-60
2021/06/07 12:02:42;;;;;;;0.10;0.10;;;31.50;50.50;;;;;;4413981;32;20077;-60
2021/06/07 12:05:11;;;;;;;0.20;0.20;;;31.30;50.30;;;;;;4418890;32;20068;-60
2021/06/07 12:07:38;;;;;;;0.03;0.03;;;31.50;51.50;;;;;;4403185;32;20066;-60
2021/06/07 12:10:06;;;;;;;0.10;0.10;;;31.40;50.80;;;;;;4417918;32;20654;-61
2021/06/07 12:12:33;;;;;;;0.05;0.05;;;32.10;50.60;;;;;;4418930;32;20126;-60
2021/06/07 12:15:13;;;;;;;0.47;0.35;;;32.30;50.20;;;;;;4403983;32;20072;-60
2021/06/07 12:17:54;;;;;;;1.10;0.70;;;32.30;49.90;;;;;;4389579;32;20121;-61
2021/06/07 12:20:21;;;;;;;1.08;0.10;;;32.30;50.40;;;;;;4415788;32;20057;-60
2021/06/07 12:22:49;;;;;;;0.30;0.30;;;32.70;50.10;;;;;;4412942;32;20178;-61
2021/06/07 12:28:28;;;;;;;0.00;0.00;;;32.90;49.50;;;;;;4402495;32;20173;-60
2021/06/07 12:30:47;;;;;;;0.10;0.10;;;32.90;49.20;;;;;;4398861;32;20061;-61
2021/06/07 12:33:12;;;;;;;0.22;0.22;;;33.30;47.90;;;;;;4413876;32;20089;-61
2021/06/07 12:35:38;;;;;;;0.57;0.40;;;33.50;48.30;;;;;;4398637;32;20645;-60
2021/06/07 12:38:06;;;;;;;0.10;0.10;;;33.70;47.60;;;;;;4407912;32;20624;-60
2021/06/07 12:40:53;;;;;;;0.17;0.17;;;33.70;48.00;;;;;;4413744;32;20081;-60
2021/06/07 12:43:21;;;;;;;0.37;0.37;;;33.80;47.30;;;;;;4404819;32;20061;-58
2021/06/07 12:46:06;;;;;;;0.52;0.28;;;33.90;47.50;;;;;;4395196;32;20064;-60
2021/06/07 12:48:36;;;;;;;0.37;0.37;;;33.50;47.90;;;;;;4392385;32;20069;-59
2021/06/07 12:51:04;;;;;;;1.50;0.82;;;33.70;47.90;;;;;;4398552;32;20467;-60
2021/06/07 12:53:33;;;;;;;0.40;0.35;;;33.70;47.50;;;;;;4413279;32;20519;-60
2021/06/07 12:56:04;;;;;;;0.10;0.10;;;34.10;46.50;;;;;;4405952;32;20064;-60